sensor_id;sensor_type;location;lat;lon;timestamp;pressure;altitude;pressure_sealevel;temperature;humidity
71465;BME280;59274;49.874;9.154;2023-04-20T00:01:52;100520.88;;;4.66;89.56
71465;BME280;59274;49.874;9.154;2023-04-20T00:04:17;100513.72;;;4.70;89.81
71465;BME280;59274;49.874;9.154;2023-04-20T00:06:43;100513.22;;;4.77;90.31
71465;BME280;59274;49.874;9.154;2023-04-20T00:09:11;100503.13;;;4.74;89.41
71465;BME280;59274;49.874;9.154;2023-04-20T00:11:37;100501.06;;;4.71;86.94
71465;BME280;59274;49.874;9.154;2023-04-20T00:14:02;100493.94;;;4.75;88.00
71465;BME280;59274;49.874;9.154;2023-04-20T00:16:28;100484.09;;;4.79;88.13
71465;BME280;59274;49.874;9.154;2023-04-20T00:18:54;100486.13;;;4.82;88.02
71465;BME280;59274;49.874;9.154;2023-04-20T00:21:19;100484.47;;;4.69;87.14
71465;BME280;59274;49.874;9.154;2023-04-20T00:23:48;100472.00;;;4.64;88.98
71465;BME280;59274;49.874;9.154;2023-04-20T00:26:14;100473.31;;;4.58;87.89
71465;BME280;59274;49.874;9.154;2023-04-20T00:28:41;100470.19;;;4.48;90.65
71465;BME280;59274;49.874;9.154;2023-04-20T00:31:06;100467.50;;;4.48;89.46
71465;BME280;59274;49.874;9.154;2023-04-20T00:33:32;100455.88;;;4.35;90.78
71465;BME280;59274;49.874;9.154;2023-04-20T00:35:58;100453.38;;;4.30;91.72
71465;BME280;59274;49.874;9.154;2023-04-20T00:38:23;100447.41;;;4.24;91.65
71465;BME280;59274;49.874;9.154;2023-04-20T00:40:48;100451.34;;;3.89;93.73
71465;BME280;59274;49.874;9.154;2023-04-20T00:43:17;100444.75;;;3.78;96.58
71465;BME280;59274;49.874;9.154;2023-04-20T00:45:44;100440.97;;;3.70;97.59
71465;BME280;59274;49.874;9.154;2023-04-20T00:48:10;100440.34;;;3.73;97.66
71465;BME280;59274;49.874;9.154;2023-04-20T00:50:37;100434.94;;;3.82;97.76
71465;BME280;59274;49.874;9.154;2023-04-20T00:53:04;100434.47;;;3.80;98.04
71465;BME280;59274;49.874;9.154;2023-04-20T00:55:30;100421.47;;;3.52;97.58
71465;BME280;59274;49.874;9.154;2023-04-20T00:57:56;100422.53;;;3.60;97.94
71465;BME280;59274;49.874;9.154;2023-04-20T01:00:22;100433.75;;;3.62;98.15
71465;BME280;59274;49.874;9.154;2023-04-20T01:02:48;100433.41;;;3.64;92.82
71465;BME280;59274;49.874;9.154;2023-04-20T01:05:13;100424.25;;;3.65;91.30
71465;BME280;59274;49.874;9.154;2023-04-20T01:07:39;100421.88;;;3.72;92.04
71465;BME280;59274;49.874;9.154;2023-04-20T01:10:06;100419.50;;;3.70;93.15
71465;BME280;59274;49.874;9.154;2023-04-20T01:12:32;100418.41;;;3.63;93.79
71465;BME280;59274;49.874;9.154;2023-04-20T01:14:57;100419.69;;;3.65;93.97
71465;BME280;59274;49.874;9.154;2023-04-20T01:17:23;100418.38;;;3.71;92.97
71465;BME280;59274;49.874;9.154;2023-04-20T01:19:49;100418.84;;;3.73;92.31
71465;BME280;59274;49.874;9.154;2023-04-20T01:22:21;100402.13;;;3.68;93.31
71465;BME280;59274;49.874;9.154;2023-04-20T01:24:47;100401.63;;;3.74;93.42
71465;BME280;59274;49.874;9.154;2023-04-20T01:27:13;100409.41;;;3.67;93.00
71465;BME280;59274;49.874;9.154;2023-04-20T01:29:41;100408.94;;;3.65;93.41
71465;BME280;59274;49.874;9.154;2023-04-20T01:32:06;100405.16;;;3.58;93.58
71465;BME280;59274;49.874;9.154;2023-04-20T01:34:32;100405.63;;;3.60;95.53
71465;BME280;59274;49.874;9.154;2023-04-20T01:36:57;100399.78;;;3.58;94.66
71465;BME280;59274;49.874;9.154;2023-04-20T01:39:23;100398.88;;;3.53;95.15
71465;BME280;59274;49.874;9.154;2023-04-20T01:41:48;100400.00;;;3.44;95.31
71465;BME280;59274;49.874;9.154;2023-04-20T01:44:14;100402.09;;;3.30;94.96
71465;BME280;59274;49.874;9.154;2023-04-20T01:46:40;100402.94;;;2.96;96.37
71465;BME280;59274;49.874;9.154;2023-04-20T01:49:06;100392.16;;;3.13;97.86
71465;BME280;59274;49.874;9.154;2023-04-20T01:51:35;100394.03;;;3.38;100.00
71465;BME280;59274;49.874;9.154;2023-04-20T01:54:01;100388.25;;;3.57;99.16
71465;BME280;59274;49.874;9.154;2023-04-20T01:56:27;100383.94;;;3.73;98.86
71465;BME280;59274;49.874;9.154;2023-04-20T01:58:53;100387.03;;;3.84;99.20
71465;BME280;59274;49.874;9.154;2023-04-20T02:01:18;100381.78;;;3.96;98.10
71465;BME280;59274;49.874;9.154;2023-04-20T02:03:43;100386.66;;;4.03;96.23
71465;BME280;59274;49.874;9.154;2023-04-20T02:06:09;100388.97;;;4.13;97.31
71465;BME280;59274;49.874;9.154;2023-04-20T02:08:35;100388.91;;;4.21;96.41
71465;BME280;59274;49.874;9.154;2023-04-20T02:11:00;100388.00;;;4.17;94.95
71465;BME280;59274;49.874;9.154;2023-04-20T02:13:26;100388.53;;;4.31;93.42
71465;BME280;59274;49.874;9.154;2023-04-20T02:15:52;100378.91;;;4.30;92.96
71465;BME280;59274;49.874;9.154;2023-04-20T02:18:17;100380.66;;;4.26;93.36
71465;BME280;59274;49.874;9.154;2023-04-20T02:20:43;100378.56;;;4.11;92.66
71465;BME280;59274;49.874;9.154;2023-04-20T02:23:09;100375.59;;;4.04;92.13
71465;BME280;59274;49.874;9.154;2023-04-20T02:25:35;100367.53;;;4.04;92.46
71465;BME280;59274;49.874;9.154;2023-04-20T02:28:00;100365.63;;;4.05;92.22
71465;BME280;59274;49.874;9.154;2023-04-20T02:30:26;100363.06;;;4.08;93.40
71465;BME280;59274;49.874;9.154;2023-04-20T02:32:51;100359.53;;;4.16;91.96
71465;BME280;59274;49.874;9.154;2023-04-20T02:35:17;100358.25;;;4.22;92.97
71465;BME280;59274;49.874;9.154;2023-04-20T02:37:43;100366.56;;;4.29;92.66
71465;BME280;59274;49.874;9.154;2023-04-20T02:40:09;100362.97;;;4.25;92.26
71465;BME280;59274;49.874;9.154;2023-04-20T02:42:34;100364.91;;;4.16;90.32
71465;BME280;59274;49.874;9.154;2023-04-20T02:45:00;100366.34;;;4.14;91.19
71465;BME280;59274;49.874;9.154;2023-04-20T02:47:25;100353.97;;;4.21;91.65
71465;BME280;59274;49.874;9.154;2023-04-20T02:49:50;100361.41;;;4.24;90.77
71465;BME280;59274;49.874;9.154;2023-04-20T02:52:16;100359.16;;;4.26;91.09
71465;BME280;59274;49.874;9.154;2023-04-20T02:54:41;100361.97;;;4.30;91.11
71465;BME280;59274;49.874;9.154;2023-04-20T02:57:07;100351.75;;;4.23;90.56
71465;BME280;59274;49.874;9.154;2023-04-20T02:59:32;100349.19;;;4.27;91.58
71465;BME280;59274;49.874;9.154;2023-04-20T03:01:58;100339.78;;;4.12;91.43
71465;BME280;59274;49.874;9.154;2023-04-20T03:04:23;100337.00;;;4.29;93.20
71465;BME280;59274;49.874;9.154;2023-04-20T03:06:50;100332.53;;;4.33;92.38
71465;BME280;59274;49.874;9.154;2023-04-20T03:09:16;100332.88;;;4.32;92.50
71465;BME280;59274;49.874;9.154;2023-04-20T03:11:41;100331.03;;;4.24;92.76
71465;BME280;59274;49.874;9.154;2023-04-20T03:14:06;100330.72;;;4.25;92.16
71465;BME280;59274;49.874;9.154;2023-04-20T03:16:32;100320.22;;;4.32;91.50
71465;BME280;59274;49.874;9.154;2023-04-20T03:18:57;100326.25;;;4.29;93.69
71465;BME280;59274;49.874;9.154;2023-04-20T03:21:23;100323.09;;;4.27;94.06
71465;BME280;59274;49.874;9.154;2023-04-20T03:23:48;100325.13;;;4.30;94.71
71465;BME280;59274;49.874;9.154;2023-04-20T03:26:14;100318.81;;;4.06;96.96
71465;BME280;59274;49.874;9.154;2023-04-20T03:28:40;100319.59;;;4.06;98.86
71465;BME280;59274;49.874;9.154;2023-04-20T03:31:06;100315.22;;;4.22;97.74
71465;BME280;59274;49.874;9.154;2023-04-20T03:33:32;100325.25;;;4.34;97.63
71465;BME280;59274;49.874;9.154;2023-04-20T03:35:57;100318.50;;;4.28;97.88
71465;BME280;59274;49.874;9.154;2023-04-20T03:38:23;100320.13;;;4.20;96.94
71465;BME280;59274;49.874;9.154;2023-04-20T03:40:48;100313.91;;;4.28;97.05
71465;BME280;59274;49.874;9.154;2023-04-20T03:43:13;100310.69;;;4.35;97.44
71465;BME280;59274;49.874;9.154;2023-04-20T03:45:40;100311.50;;;4.36;95.69
71465;BME280;59274;49.874;9.154;2023-04-20T03:48:06;100308.94;;;4.39;95.29
71465;BME280;59274;49.874;9.154;2023-04-20T03:50:31;100314.44;;;4.43;95.39
71465;BME280;59274;49.874;9.154;2023-04-20T03:52:56;100310.38;;;4.37;93.62
71465;BME280;59274;49.874;9.154;2023-04-20T03:55:22;100312.59;;;4.34;93.35
71465;BME280;59274;49.874;9.154;2023-04-20T03:57:47;100304.41;;;4.31;95.60
71465;BME280;59274;49.874;9.154;2023-04-20T04:00:13;100304.09;;;4.32;94.67
71465;BME280;59274;49.874;9.154;2023-04-20T04:02:38;100299.03;;;4.31;94.74
71465;BME280;59274;49.874;9.154;2023-04-20T04:05:04;100301.06;;;4.34;93.88
71465;BME280;59274;49.874;9.154;2023-04-20T04:07:30;100299.75;;;4.19;94.69
71465;BME280;59274;49.874;9.154;2023-04-20T04:09:55;100302.69;;;4.26;95.21
71465;BME280;59274;49.874;9.154;2023-04-20T04:12:21;100298.31;;;4.22;96.40
71465;BME280;59274;49.874;9.154;2023-04-20T04:14:46;100296.63;;;4.17;97.49
71465;BME280;59274;49.874;9.154;2023-04-20T04:17:14;100297.16;;;4.11;98.67
71465;BME280;59274;49.874;9.154;2023-04-20T04:19:40;100296.88;;;4.04;99.56
71465;BME280;59274;49.874;9.154;2023-04-20T04:22:05;100300.25;;;3.92;100.00
71465;BME280;59274;49.874;9.154;2023-04-20T04:24:31;100304.66;;;3.97;100.00
71465;BME280;59274;49.874;9.154;2023-04-20T04:26:58;100306.41;;;3.92;100.00
71465;BME280;59274;49.874;9.154;2023-04-20T04:29:23;100302.56;;;4.02;99.42
71465;BME280;59274;49.874;9.154;2023-04-20T04:31:52;100304.94;;;4.04;99.22
71465;BME280;59274;49.874;9.154;2023-04-20T04:34:18;100304.09;;;4.12;98.53
71465;BME280;59274;49.874;9.154;2023-04-20T04:36:44;100303.84;;;4.25;97.24
71465;BME280;59274;49.874;9.154;2023-04-20T04:39:10;100305.66;;;4.33;96.83
71465;BME280;59274;49.874;9.154;2023-04-20T04:41:36;100307.09;;;4.31;97.11
71465;BME280;59274;49.874;9.154;2023-04-20T04:44:02;100304.94;;;4.24;97.77
71465;BME280;59274;49.874;9.154;2023-04-20T04:46:27;100304.28;;;4.27;97.58
71465;BME280;59274;49.874;9.154;2023-04-20T04:48:54;100306.78;;;4.32;98.23
71465;BME280;59274;49.874;9.154;2023-04-20T04:51:20;100304.63;;;4.47;97.44
71465;BME280;59274;49.874;9.154;2023-04-20T04:53:45;100298.56;;;4.50;94.59
71465;BME280;59274;49.874;9.154;2023-04-20T04:56:13;100304.19;;;4.57;94.30
71465;BME280;59274;49.874;9.154;2023-04-20T04:58:39;100301.28;;;4.62;94.13
71465;BME280;59274;49.874;9.154;2023-04-20T05:01:04;100298.69;;;4.53;98.11
71465;BME280;59274;49.874;9.154;2023-04-20T05:03:30;100302.97;;;4.54;100.00
71465;BME280;59274;49.874;9.154;2023-04-20T05:05:55;100306.16;;;4.48;100.00
71465;BME280;59274;49.874;9.154;2023-04-20T05:08:21;100300.28;;;4.33;100.00
71465;BME280;59274;49.874;9.154;2023-04-20T05:10:49;100303.69;;;4.43;100.00
71465;BME280;59274;49.874;9.154;2023-04-20T05:13:14;100305.53;;;4.51;100.00
71465;BME280;59274;49.874;9.154;2023-04-20T05:15:40;100308.00;;;4.35;99.50
71465;BME280;59274;49.874;9.154;2023-04-20T05:18:05;100306.16;;;4.48;99.58
71465;BME280;59274;49.874;9.154;2023-04-20T05:20:30;100302.97;;;4.54;99.04
71465;BME280;59274;49.874;9.154;2023-04-20T05:22:56;100310.22;;;4.75;97.75
71465;BME280;59274;49.874;9.154;2023-04-20T05:25:21;100307.97;;;4.77;96.52
71465;BME280;59274;49.874;9.154;2023-04-20T05:27:47;100310.78;;;4.80;96.64
71465;BME280;59274;49.874;9.154;2023-04-20T05:30:12;100311.44;;;4.77;95.79
71465;BME280;59274;49.874;9.154;2023-04-20T05:32:38;100319.13;;;4.87;96.52
71465;BME280;59274;49.874;9.154;2023-04-20T05:35:03;100304.88;;;4.87;96.43
71465;BME280;59274;49.874;9.154;2023-04-20T05:37:30;100306.78;;;4.86;96.56
71465;BME280;59274;49.874;9.154;2023-04-20T05:39:56;100304.22;;;4.90;95.37
71465;BME280;59274;49.874;9.154;2023-04-20T05:42:21;100305.81;;;5.03;94.72
71465;BME280;59274;49.874;9.154;2023-04-20T05:44:46;100303.16;;;5.15;94.43
71465;BME280;59274;49.874;9.154;2023-04-20T05:47:12;100302.56;;;5.09;94.61
71465;BME280;59274;49.874;9.154;2023-04-20T05:49:37;100300.00;;;5.13;93.89
71465;BME280;59274;49.874;9.154;2023-04-20T05:52:03;100307.88;;;5.18;93.67
71465;BME280;59274;49.874;9.154;2023-04-20T05:54:29;100301.34;;;5.19;93.29
71465;BME280;59274;49.874;9.154;2023-04-20T05:56:54;100299.25;;;5.25;93.32
71465;BME280;59274;49.874;9.154;2023-04-20T05:59:22;100292.75;;;5.50;91.77
71465;BME280;59274;49.874;9.154;2023-04-20T06:01:48;100291.31;;;5.53;91.68
71465;BME280;59274;49.874;9.154;2023-04-20T06:04:14;100299.16;;;5.58;91.86
71465;BME280;59274;49.874;9.154;2023-04-20T06:06:39;100294.97;;;5.48;92.66
71465;BME280;59274;49.874;9.154;2023-04-20T06:09:05;100309.69;;;5.50;92.70
71465;BME280;59274;49.874;9.154;2023-04-20T06:11:30;100316.19;;;5.62;92.56
71465;BME280;59274;49.874;9.154;2023-04-20T06:13:56;100317.34;;;5.73;91.04
71465;BME280;59274;49.874;9.154;2023-04-20T06:16:22;100315.97;;;5.79;91.54
71465;BME280;59274;49.874;9.154;2023-04-20T06:18:47;100319.00;;;5.65;90.51
71465;BME280;59274;49.874;9.154;2023-04-20T06:21:13;100319.22;;;5.84;89.75
71465;BME280;59274;49.874;9.154;2023-04-20T06:23:40;100322.19;;;6.04;89.11
71465;BME280;59274;49.874;9.154;2023-04-20T06:26:05;100318.53;;;6.12;88.98
71465;BME280;59274;49.874;9.154;2023-04-20T06:28:33;100318.16;;;6.38;88.83
71465;BME280;59274;49.874;9.154;2023-04-20T06:30:59;100313.28;;;6.15;87.47
71465;BME280;59274;49.874;9.154;2023-04-20T06:33:25;100316.06;;;6.19;86.37
71465;BME280;59274;49.874;9.154;2023-04-20T06:35:50;100314.94;;;6.32;87.15
71465;BME280;59274;49.874;9.154;2023-04-20T06:38:19;100307.28;;;6.62;84.84
71465;BME280;59274;49.874;9.154;2023-04-20T06:40:44;100312.13;;;6.84;83.40
71465;BME280;59274;49.874;9.154;2023-04-20T06:43:10;100315.72;;;7.04;83.14
71465;BME280;59274;49.874;9.154;2023-04-20T06:45:35;100313.38;;;6.87;82.61
71465;BME280;59274;49.874;9.154;2023-04-20T06:48:01;100311.53;;;6.91;82.83
71465;BME280;59274;49.874;9.154;2023-04-20T06:50:26;100313.66;;;7.13;81.20
71465;BME280;59274;49.874;9.154;2023-04-20T06:52:52;100310.28;;;7.16;82.61
71465;BME280;59274;49.874;9.154;2023-04-20T06:55:17;100314.47;;;7.29;81.78
71465;BME280;59274;49.874;9.154;2023-04-20T06:57:42;100310.47;;;7.23;82.20
71465;BME280;59274;49.874;9.154;2023-04-20T07:00:10;100304.78;;;7.28;81.54
71465;BME280;59274;49.874;9.154;2023-04-20T07:02:46;100307.06;;;7.58;80.84
71465;BME280;59274;49.874;9.154;2023-04-20T07:05:13;100305.16;;;7.42;81.06
71465;BME280;59274;49.874;9.154;2023-04-20T07:07:40;100306.78;;;7.47;81.47
71465;BME280;59274;49.874;9.154;2023-04-20T07:10:07;100303.75;;;7.33;82.89
71465;BME280;59274;49.874;9.154;2023-04-20T07:12:34;100306.00;;;7.46;81.37
71465;BME280;59274;49.874;9.154;2023-04-20T07:15:01;100306.44;;;7.64;81.65
71465;BME280;59274;49.874;9.154;2023-04-20T07:17:27;100299.00;;;8.12;77.53
71465;BME280;59274;49.874;9.154;2023-04-20T07:19:53;100296.13;;;8.20;74.74
71465;BME280;59274;49.874;9.154;2023-04-20T07:22:20;100301.50;;;8.55;74.56
71465;BME280;59274;49.874;9.154;2023-04-20T07:24:46;100291.59;;;8.63;73.73
71465;BME280;59274;49.874;9.154;2023-04-20T07:27:11;100285.84;;;8.45;74.52
71465;BME280;59274;49.874;9.154;2023-04-20T07:29:37;100275.13;;;8.72;73.91
71465;BME280;59274;49.874;9.154;2023-04-20T07:32:02;100272.22;;;9.03;70.31
71465;BME280;59274;49.874;9.154;2023-04-20T07:34:28;100268.97;;;8.94;69.57
71465;BME280;59274;49.874;9.154;2023-04-20T07:36:53;100265.28;;;8.83;71.55
71465;BME280;59274;49.874;9.154;2023-04-20T07:39:19;100264.97;;;9.11;69.72
71465;BME280;59274;49.874;9.154;2023-04-20T07:41:44;100267.22;;;9.28;70.07
71465;BME280;59274;49.874;9.154;2023-04-20T07:44:12;100259.41;;;9.23;67.88
71465;BME280;59274;49.874;9.154;2023-04-20T07:46:37;100264.72;;;9.16;67.21
71465;BME280;59274;49.874;9.154;2023-04-20T07:49:03;100255.16;;;9.02;68.04
71465;BME280;59274;49.874;9.154;2023-04-20T07:51:28;100256.97;;;9.18;69.84
71465;BME280;59274;49.874;9.154;2023-04-20T07:53:54;100260.94;;;9.24;71.28
71465;BME280;59274;49.874;9.154;2023-04-20T07:56:21;100252.75;;;9.43;68.46
71465;BME280;59274;49.874;9.154;2023-04-20T07:58:46;100266.53;;;9.57;67.18
71465;BME280;59274;49.874;9.154;2023-04-20T08:01:11;100260.84;;;9.66;65.06
71465;BME280;59274;49.874;9.154;2023-04-20T08:03:37;100269.09;;;9.73;67.42
71465;BME280;59274;49.874;9.154;2023-04-20T08:06:02;100270.59;;;9.70;65.03
71465;BME280;59274;49.874;9.154;2023-04-20T08:08:28;100263.88;;;9.87;65.15
71465;BME280;59274;49.874;9.154;2023-04-20T08:10:56;100259.09;;;10.07;66.67
71465;BME280;59274;49.874;9.154;2023-04-20T08:13:22;100255.25;;;10.08;64.21
71465;BME280;59274;49.874;9.154;2023-04-20T08:15:48;100261.19;;;9.91;65.34
71465;BME280;59274;49.874;9.154;2023-04-20T08:18:13;100259.16;;;9.84;64.42
71465;BME280;59274;49.874;9.154;2023-04-20T08:20:39;100261.97;;;9.91;64.02
71465;BME280;59274;49.874;9.154;2023-04-20T08:23:04;100259.03;;;10.03;64.48
71465;BME280;59274;49.874;9.154;2023-04-20T08:25:30;100256.22;;;10.23;64.20
71465;BME280;59274;49.874;9.154;2023-04-20T08:27:56;100255.84;;;10.24;62.71
71465;BME280;59274;49.874;9.154;2023-04-20T08:30:22;100259.16;;;10.40;64.52
71465;BME280;59274;49.874;9.154;2023-04-20T08:32:47;100249.28;;;10.58;64.20
71465;BME280;59274;49.874;9.154;2023-04-20T08:35:13;100252.63;;;10.82;62.14
71465;BME280;59274;49.874;9.154;2023-04-20T08:37:38;100241.69;;;11.19;62.54
71465;BME280;59274;49.874;9.154;2023-04-20T08:40:04;100238.25;;;11.25;59.96
71465;BME280;59274;49.874;9.154;2023-04-20T08:42:30;100245.47;;;11.55;58.94
71465;BME280;59274;49.874;9.154;2023-04-20T08:44:57;100233.44;;;11.59;57.73
71465;BME280;59274;49.874;9.154;2023-04-20T08:47:22;100233.59;;;11.77;58.05
71465;BME280;59274;49.874;9.154;2023-04-20T08:49:52;100237.34;;;11.62;57.46
71465;BME280;59274;49.874;9.154;2023-04-20T08:52:17;100230.03;;;11.73;57.13
71465;BME280;59274;49.874;9.154;2023-04-20T08:54:43;100228.69;;;12.04;56.33
71465;BME280;59274;49.874;9.154;2023-04-20T08:57:08;100231.09;;;12.20;54.01
71465;BME280;59274;49.874;9.154;2023-04-20T08:59:35;100224.84;;;12.15;53.78
71465;BME280;59274;49.874;9.154;2023-04-20T09:02:14;100223.69;;;12.13;52.73
71465;BME280;59274;49.874;9.154;2023-04-20T09:04:40;100226.47;;;12.27;53.74
71465;BME280;59274;49.874;9.154;2023-04-20T09:07:06;100219.56;;;12.69;54.09
71465;BME280;59274;49.874;9.154;2023-04-20T09:09:53;100217.25;;;13.03;52.93
71465;BME280;59274;49.874;9.154;2023-04-20T09:12:19;100213.75;;;12.84;51.53
71465;BME280;59274;49.874;9.154;2023-04-20T09:14:46;100214.34;;;12.14;55.19
71465;BME280;59274;49.874;9.154;2023-04-20T09:17:13;100219.84;;;12.32;55.89
71465;BME280;59274;49.874;9.154;2023-04-20T09:19:39;100200.47;;;11.64;54.00
71465;BME280;59274;49.874;9.154;2023-04-20T09:22:05;100208.03;;;11.92;55.78
71465;BME280;59274;49.874;9.154;2023-04-20T09:24:35;100210.41;;;12.08;56.45
71465;BME280;59274;49.874;9.154;2023-04-20T09:27:05;100217.53;;;12.37;54.40
71465;BME280;59274;49.874;9.154;2023-04-20T09:29:38;100203.22;;;12.72;51.96
71465;BME280;59274;49.874;9.154;2023-04-20T09:32:03;100207.53;;;13.02;54.66
71465;BME280;59274;49.874;9.154;2023-04-20T09:34:29;100218.81;;;12.93;51.00
71465;BME280;59274;49.874;9.154;2023-04-20T09:36:55;100200.91;;;12.85;52.75
71465;BME280;59274;49.874;9.154;2023-04-20T09:39:22;100204.41;;;12.85;53.66
71465;BME280;59274;49.874;9.154;2023-04-20T09:41:49;100201.69;;;12.92;51.94
71465;BME280;59274;49.874;9.154;2023-04-20T09:44:16;100205.25;;;13.14;53.77
71465;BME280;59274;49.874;9.154;2023-04-20T09:46:42;100196.25;;;13.35;51.07
71465;BME280;59274;49.874;9.154;2023-04-20T09:49:10;100195.41;;;13.66;52.10
71465;BME280;59274;49.874;9.154;2023-04-20T09:51:38;100195.03;;;13.61;48.48
71465;BME280;59274;49.874;9.154;2023-04-20T09:54:06;100193.88;;;13.51;48.60
71465;BME280;59274;49.874;9.154;2023-04-20T09:56:33;100183.41;;;13.28;46.97
71465;BME280;59274;49.874;9.154;2023-04-20T09:59:00;100196.22;;;13.56;50.09
71465;BME280;59274;49.874;9.154;2023-04-20T10:01:29;100198.16;;;13.52;50.90
71465;BME280;59274;49.874;9.154;2023-04-20T10:03:56;100197.03;;;13.25;51.68
71465;BME280;59274;49.874;9.154;2023-04-20T10:08:51;100201.25;;;12.73;49.93
71465;BME280;59274;49.874;9.154;2023-04-20T10:11:27;100196.59;;;12.87;49.73
71465;BME280;59274;49.874;9.154;2023-04-20T10:13:52;100188.81;;;12.79;49.15
71465;BME280;59274;49.874;9.154;2023-04-20T10:16:19;100190.41;;;12.98;50.48
71465;BME280;59274;49.874;9.154;2023-04-20T10:19:02;100191.16;;;12.94;51.06
71465;BME280;59274;49.874;9.154;2023-04-20T10:21:29;100187.28;;;12.85;49.98
71465;BME280;59274;49.874;9.154;2023-04-20T10:23:57;100182.59;;;13.03;49.90
71465;BME280;59274;49.874;9.154;2023-04-20T10:26:45;100179.50;;;13.15;50.17
71465;BME280;59274;49.874;9.154;2023-04-20T10:29:22;100177.13;;;13.53;49.21
71465;BME280;59274;49.874;9.154;2023-04-20T10:31:49;100166.16;;;13.78;46.36
71465;BME280;59274;49.874;9.154;2023-04-20T10:34:15;100170.81;;;13.84;49.43
71465;BME280;59274;49.874;9.154;2023-04-20T10:36:40;100173.91;;;13.79;45.16
71465;BME280;59274;49.874;9.154;2023-04-20T10:39:19;100174.41;;;13.49;46.43
71465;BME280;59274;49.874;9.154;2023-04-20T10:41:56;100162.25;;;13.64;45.76
71465;BME280;59274;49.874;9.154;2023-04-20T10:44:28;100166.44;;;14.01;47.62
71465;BME280;59274;49.874;9.154;2023-04-20T10:46:54;100163.50;;;14.43;46.00
71465;BME280;59274;49.874;9.154;2023-04-20T10:49:25;100151.44;;;14.34;45.18
71465;BME280;59274;49.874;9.154;2023-04-20T10:51:51;100154.16;;;14.37;45.75
71465;BME280;59274;49.874;9.154;2023-04-20T10:54:18;100151.84;;;14.39;45.96
71465;BME280;59274;49.874;9.154;2023-04-20T10:56:51;100157.84;;;14.72;45.93
71465;BME280;59274;49.874;9.154;2023-04-20T10:59:19;100143.78;;;14.73;46.28
71465;BME280;59274;49.874;9.154;2023-04-20T11:01:45;100150.97;;;14.49;44.19
71465;BME280;59274;49.874;9.154;2023-04-20T11:04:11;100137.53;;;14.76;44.71
71465;BME280;59274;49.874;9.154;2023-04-20T11:06:41;100138.06;;;14.54;43.94
71465;BME280;59274;49.874;9.154;2023-04-20T11:09:18;100136.91;;;14.51;44.73
71465;BME280;59274;49.874;9.154;2023-04-20T11:11:44;100130.88;;;14.11;45.28
71465;BME280;59274;49.874;9.154;2023-04-20T11:14:11;100121.88;;;14.15;44.55
71465;BME280;59274;49.874;9.154;2023-04-20T11:16:37;100123.16;;;13.96;42.41
71465;BME280;59274;49.874;9.154;2023-04-20T11:19:03;100113.38;;;14.02;42.13
71465;BME280;59274;49.874;9.154;2023-04-20T11:21:39;100114.22;;;14.58;42.94
71465;BME280;59274;49.874;9.154;2023-04-20T11:24:19;100103.47;;;15.25;44.10
71465;BME280;59274;49.874;9.154;2023-04-20T11:26:45;100101.59;;;15.19;42.10
71465;BME280;59274;49.874;9.154;2023-04-20T11:31:54;100095.50;;;14.56;44.77
71465;BME280;59274;49.874;9.154;2023-04-20T11:34:20;100101.72;;;14.57;43.88
71465;BME280;59274;49.874;9.154;2023-04-20T11:36:46;100092.72;;;14.63;45.56
71465;BME280;59274;49.874;9.154;2023-04-20T11:39:12;100097.47;;;14.56;43.77
71465;BME280;59274;49.874;9.154;2023-04-20T11:41:38;100091.31;;;14.37;43.69
71465;BME280;59274;49.874;9.154;2023-04-20T11:44:07;100090.91;;;14.42;43.71
71465;BME280;59274;49.874;9.154;2023-04-20T11:46:35;100094.34;;;14.54;44.37
71465;BME280;59274;49.874;9.154;2023-04-20T11:49:02;100088.44;;;14.62;42.72
71465;BME280;59274;49.874;9.154;2023-04-20T11:51:28;100082.94;;;14.00;43.28
71465;BME280;59274;49.874;9.154;2023-04-20T11:53:54;100082.31;;;14.37;44.09
71465;BME280;59274;49.874;9.154;2023-04-20T11:56:19;100079.31;;;14.24;43.95
71465;BME280;59274;49.874;9.154;2023-04-20T11:58:44;100079.19;;;14.45;44.50
71465;BME280;59274;49.874;9.154;2023-04-20T12:01:10;100076.56;;;14.24;44.02
71465;BME280;59274;49.874;9.154;2023-04-20T12:03:36;100083.53;;;14.32;46.18
71465;BME280;59274;49.874;9.154;2023-04-20T12:06:01;100078.38;;;13.83;44.38
71465;BME280;59274;49.874;9.154;2023-04-20T12:08:27;100081.28;;;13.40;45.04
71465;BME280;59274;49.874;9.154;2023-04-20T12:10:55;100083.25;;;13.22;44.42
71465;BME280;59274;49.874;9.154;2023-04-20T12:13:20;100083.28;;;12.93;48.72
71465;BME280;59274;49.874;9.154;2023-04-20T12:15:46;100082.16;;;12.70;45.15
71465;BME280;59274;49.874;9.154;2023-04-20T12:18:11;100080.22;;;12.70;46.32
71465;BME280;59274;49.874;9.154;2023-04-20T12:20:36;100075.53;;;12.85;45.07
71465;BME280;59274;49.874;9.154;2023-04-20T12:23:02;100076.66;;;13.05;43.86
71465;BME280;59274;49.874;9.154;2023-04-20T12:25:28;100074.28;;;13.32;45.52
71465;BME280;59274;49.874;9.154;2023-04-20T12:27:53;100071.88;;;13.55;43.14
71465;BME280;59274;49.874;9.154;2023-04-20T12:30:19;100069.78;;;13.81;46.26
71465;BME280;59274;49.874;9.154;2023-04-20T12:32:45;100073.03;;;13.54;44.34
71465;BME280;59274;49.874;9.154;2023-04-20T12:35:10;100070.28;;;13.61;46.28
71465;BME280;59274;49.874;9.154;2023-04-20T12:37:35;100069.50;;;13.57;46.11
71465;BME280;59274;49.874;9.154;2023-04-20T12:40:01;100061.84;;;13.27;45.33
71465;BME280;59274;49.874;9.154;2023-04-20T12:42:26;100078.97;;;13.24;46.43
71465;BME280;59274;49.874;9.154;2023-04-20T12:44:52;100072.78;;;12.95;46.66
71465;BME280;59274;49.874;9.154;2023-04-20T12:47:18;100089.56;;;12.69;47.43
71465;BME280;59274;49.874;9.154;2023-04-20T12:49:44;100083.31;;;12.44;48.93
71465;BME280;59274;49.874;9.154;2023-04-20T12:52:09;100086.44;;;12.53;47.72
71465;BME280;59274;49.874;9.154;2023-04-20T12:54:35;100086.81;;;12.44;46.93
71465;BME280;59274;49.874;9.154;2023-04-20T12:57:00;100086.41;;;12.25;46.84